createdAt,value
2023-05-22T00:00:26.223Z,76.45
2023-05-22T00:01:26.207Z,75.54
2023-05-22T00:02:26.252Z,76.86
2023-05-22T00:03:26.218Z,77.66
2023-05-22T00:04:26.155Z,76.35
2023-05-22T00:05:26.212Z,75.24
2023-05-22T00:06:26.132Z,77.46
2023-05-22T00:07:26.136Z,77.97
2023-05-22T00:08:29.275Z,78.88
2023-05-22T00:09:26.101Z,78.20
2023-05-22T00:10:26.076Z,78.20
2023-05-22T00:11:26.087Z,78.20
2023-05-22T00:12:26.072Z,77.90
2023-05-22T00:13:26.036Z,79.21
2023-05-22T00:14:26.028Z,79.55
2023-05-22T00:15:26.027Z,78.30
2023-05-22T00:16:26.038Z,77.19
2023-05-22T00:17:26.091Z,77.19
2023-05-22T00:18:25.981Z,77.39
2023-05-22T00:19:26.056Z,76.89
2023-05-22T00:20:25.942Z,76.39
2023-05-22T00:21:25.936Z,75.78
2023-05-22T00:22:25.917Z,75.98
2023-05-22T00:23:25.921Z,75.68
2023-05-22T00:24:25.924Z,77.29
2023-05-22T00:25:25.880Z,78.20
2023-05-22T00:26:25.953Z,78.64
2023-05-22T00:27:25.873Z,78.85
2023-05-22T00:28:25.888Z,79.05
2023-05-22T00:29:25.903Z,78.95
2023-05-22T00:30:25.883Z,77.64
2023-05-22T00:31:25.915Z,77.53
2023-05-22T00:32:25.936Z,77.13
2023-05-22T00:33:25.884Z,76.93
2023-05-22T00:34:25.793Z,78.55
2023-05-22T00:35:25.772Z,78.75
2023-05-22T00:36:25.727Z,77.43
2023-05-22T00:37:25.747Z,78.55
2023-05-22T00:38:25.709Z,80.06
2023-05-22T00:39:25.688Z,80.36
2023-05-22T00:40:25.695Z,79.29
2023-05-22T00:41:25.672Z,78.08
2023-05-22T00:42:25.647Z,79.29
2023-05-22T00:43:25.633Z,81.21
2023-05-22T00:44:25.634Z,81.62
2023-05-22T00:45:25.615Z,79.39
2023-05-22T00:46:25.656Z,77.67
2023-05-22T00:47:25.648Z,78.78
2023-05-22T00:48:25.568Z,78.17
2023-05-22T00:49:25.572Z,78.58
2023-05-22T00:50:25.543Z,78.28
2023-05-22T00:51:25.525Z,77.17
2023-05-22T00:52:25.506Z,77.67
2023-05-22T00:53:25.543Z,77.57
2023-05-22T00:54:25.509Z,77.26
2023-05-22T00:55:25.469Z,78.38
2023-05-22T00:56:25.461Z,80.91
2023-05-22T00:57:25.458Z,81.11
2023-05-22T00:58:25.442Z,80.80
2023-05-22T00:59:25.448Z,78.92
2023-05-22T01:00:25.433Z,79.13
2023-05-22T01:01:25.397Z,79.33
2023-05-22T01:02:25.393Z,81.05
2023-05-22T01:03:25.455Z,79.73
2023-05-22T01:04:25.375Z,79.13
2023-05-22T01:05:25.339Z,79.22
2023-05-22T01:06:25.347Z,78.88
2023-05-22T01:07:25.315Z,78.88
2023-05-22T01:08:25.320Z,78.72
2023-05-22T01:09:25.302Z,80.44
2023-05-22T01:10:25.321Z,80.64
2023-05-22T01:11:25.261Z,79.83
2023-05-22T01:12:25.262Z,79.53
2023-05-22T01:13:25.241Z,79.53
2023-05-22T01:14:25.233Z,79.73
2023-05-22T01:15:25.204Z,80.94
2023-05-22T01:16:25.285Z,79.77
2023-05-22T01:17:25.195Z,79.97
2023-05-22T01:18:25.201Z,80.07
2023-05-22T01:19:25.250Z,78.55
2023-05-22T01:20:25.146Z,82.26
2023-05-22T01:21:25.126Z,81.45
2023-05-22T01:22:25.142Z,81.29
2023-05-22T01:23:25.106Z,82.50
2023-05-22T01:24:25.098Z,81.79
2023-05-22T01:25:25.064Z,81.29
2023-05-22T01:26:25.070Z,80.68
2023-05-22T01:27:25.061Z,80.58
2023-05-22T01:28:25.068Z,81.90
2023-05-22T01:29:25.021Z,81.59
2023-05-22T01:30:25.011Z,81.09
2023-05-22T01:31:25.015Z,81.69
2023-05-22T01:32:25.053Z,84.33
2023-05-22T01:33:25.057Z,84.12
2023-05-22T01:34:24.951Z,83.41
2023-05-22T01:35:24.959Z,83.61
2023-05-22T01:36:24.945Z,83.11
2023-05-22T01:37:24.921Z,82.60
2023-05-22T01:38:24.891Z,83.31
2023-05-22T01:39:24.891Z,80.88
2023-05-22T01:40:24.892Z,79.46
2023-05-22T01:41:24.874Z,79.77
2023-05-22T01:42:24.859Z,78.86
2023-05-22T01:43:24.836Z,80.58
2023-05-22T01:44:24.826Z,80.47
2023-05-22T01:45:24.836Z,80.78
2023-05-22T01:46:24.844Z,79.97
2023-05-22T01:47:24.783Z,80.27
2023-05-22T01:48:24.773Z,80.98
2023-05-22T01:49:24.761Z,81.29
2023-05-22T01:50:24.774Z,81.99
2023-05-22T01:51:24.720Z,81.32
2023-05-22T01:52:24.724Z,79.91
2023-05-22T01:53:24.692Z,80.21
2023-05-22T01:54:24.695Z,80.62
2023-05-22T01:55:24.690Z,80.92
2023-05-22T01:56:24.672Z,80.11
2023-05-22T01:57:24.650Z,79.30
2023-05-22T01:58:24.676Z,79.10
2023-05-22T01:59:24.630Z,79.30
2023-05-22T02:00:24.631Z,80.15
2023-05-22T02:01:24.664Z,80.76
2023-05-22T02:02:24.658Z,79.54
2023-05-22T02:03:24.697Z,79.64
2023-05-22T02:04:24.556Z,80.86
2023-05-22T02:05:24.548Z,81.97
2023-05-22T02:06:24.554Z,81.46
2023-05-22T02:07:24.515Z,81.57
2023-05-22T02:08:24.506Z,83.39
2023-05-22T02:09:24.516Z,83.33
2023-05-22T02:10:24.489Z,83.83
2023-05-22T02:11:24.485Z,81.71
2023-05-22T02:12:24.481Z,80.99
2023-05-22T02:13:24.445Z,81.50
2023-05-22T02:14:24.449Z,82.42
2023-05-22T02:15:24.497Z,81.71
2023-05-22T02:16:24.599Z,80.79
2023-05-22T02:17:24.380Z,80.79
2023-05-22T02:18:24.390Z,81.71
2023-05-22T02:19:24.409Z,82.42
2023-05-22T02:20:24.358Z,82.66
2023-05-22T02:21:24.338Z,81.34
2023-05-22T02:22:24.319Z,80.83
2023-05-22T02:23:24.313Z,80.73
2023-05-22T02:24:24.306Z,80.12
2023-05-22T02:25:24.280Z,79.82
2023-05-22T02:26:24.275Z,80.73
2023-05-22T02:27:24.241Z,81.54
2023-05-22T02:28:24.298Z,81.13
2023-05-22T02:29:24.218Z,80.73
2023-05-22T02:30:24.217Z,80.46
2023-05-22T02:31:24.230Z,81.07
2023-05-22T02:32:24.298Z,80.66
2023-05-22T02:33:24.188Z,80.77
2023-05-22T02:34:24.164Z,81.18
2023-05-22T02:35:24.155Z,80.77
2023-05-22T02:36:24.137Z,80.87
2023-05-22T02:37:24.148Z,81.78
2023-05-22T02:38:24.097Z,82.39
2023-05-22T02:39:24.085Z,82.12
2023-05-22T02:40:24.074Z,83.45
2023-05-22T02:41:24.055Z,83.54
2023-05-22T02:42:24.080Z,83.34
2023-05-22T02:43:24.038Z,82.23
2023-05-22T02:44:24.042Z,82.03
2023-05-22T02:45:24.017Z,83.24
2023-05-22T02:46:24.030Z,83.59
2023-05-22T02:47:23.985Z,82.87
2023-05-22T02:48:23.979Z,82.26
2023-05-22T02:49:23.978Z,82.17
2023-05-22T02:50:23.942Z,82.57
2023-05-22T02:51:23.949Z,82.98
2023-05-22T02:52:23.924Z,83.18
2023-05-22T02:53:23.914Z,82.57
2023-05-22T02:54:23.886Z,82.37
2023-05-22T02:55:23.899Z,82.17
2023-05-22T02:56:23.878Z,82.06
2023-05-22T02:57:23.853Z,82.40
2023-05-22T02:58:23.838Z,82.00
2023-05-22T02:59:23.833Z,82.81
2023-05-22T03:00:23.797Z,83.22
2023-05-22T03:01:23.851Z,82.61
2023-05-22T03:02:23.816Z,83.12
2023-05-22T03:03:23.962Z,82.71
2023-05-22T03:04:23.747Z,82.51
2023-05-22T03:05:23.740Z,83.01
2023-05-22T03:06:23.736Z,82.40
2023-05-22T03:07:23.721Z,82.51
2023-05-22T03:08:23.698Z,82.20
2023-05-22T03:09:23.676Z,81.49
2023-05-22T03:10:23.700Z,81.23
2023-05-22T03:11:23.667Z,82.34
2023-05-22T03:12:23.654Z,81.63
2023-05-22T03:13:23.618Z,81.84
2023-05-22T03:14:23.629Z,81.63
2023-05-22T03:15:23.609Z,82.14
2023-05-22T03:16:23.649Z,81.73
2023-05-22T03:17:23.591Z,81.73
2023-05-22T03:18:25.897Z,82.04
2023-05-22T03:19:23.645Z,82.45
2023-05-22T03:20:23.540Z,82.04
2023-05-22T03:21:23.527Z,81.93
2023-05-22T03:22:23.509Z,82.04
2023-05-22T03:23:23.504Z,81.33
2023-05-22T03:24:23.515Z,81.93
2023-05-22T03:25:23.470Z,82.34
2023-05-22T03:26:23.451Z,83.06
2023-05-22T03:27:23.435Z,82.75
2023-05-22T03:28:23.449Z,83.06
2023-05-22T03:29:23.420Z,83.15
2023-05-22T03:30:23.422Z,83.15
2023-05-22T03:31:23.379Z,83.56
2023-05-22T03:32:23.443Z,82.85
2023-05-22T03:33:23.389Z,81.84
2023-05-22T03:34:23.372Z,81.73
2023-05-22T03:35:23.355Z,81.53
2023-05-22T03:36:23.334Z,82.34
2023-05-22T03:37:23.310Z,83.76
2023-05-22T03:38:23.311Z,83.26
2023-05-22T03:39:23.300Z,83.36
2023-05-22T03:40:23.283Z,83.46
2023-05-22T03:41:23.261Z,82.65
2023-05-22T03:42:23.248Z,81.84
2023-05-22T03:43:23.244Z,82.85
2023-05-22T03:44:23.217Z,81.23
2023-05-22T03:45:23.203Z,85.15
2023-05-22T03:46:23.283Z,85.76
2023-05-22T03:47:23.224Z,85.35
2023-05-22T03:48:23.206Z,85.05
2023-05-22T03:49:23.144Z,84.64
2023-05-22T03:50:23.156Z,83.53
2023-05-22T03:51:23.121Z,82.20
2023-05-22T03:52:23.137Z,83.22
2023-05-22T03:53:23.107Z,84.03
2023-05-22T03:54:23.084Z,83.38
2023-05-22T03:55:23.062Z,83.79
2023-05-22T03:56:23.064Z,83.38
2023-05-22T03:57:23.127Z,83.38
2023-05-22T03:58:23.040Z,83.28
2023-05-22T03:59:23.030Z,83.59
2023-05-22T04:00:23.585Z,84.46
2023-05-22T04:01:22.988Z,84.66
2023-05-22T04:02:23.012Z,83.75
2023-05-22T04:03:23.084Z,82.84
2023-05-22T04:04:22.928Z,82.94
2023-05-22T04:05:22.958Z,82.43
2023-05-22T04:06:22.942Z,81.72
2023-05-22T04:07:22.980Z,80.57
2023-05-22T04:08:22.898Z,81.68
2023-05-22T04:09:22.886Z,82.39
2023-05-22T04:10:22.881Z,83.40
2023-05-22T04:11:22.866Z,83.31
2023-05-22T04:12:22.849Z,82.86
2023-05-22T04:13:22.840Z,81.04
2023-05-22T04:14:22.826Z,81.34
2023-05-22T04:15:22.806Z,82.86
2023-05-22T04:16:22.838Z,82.42
2023-05-22T04:17:22.799Z,83.63
2023-05-22T04:18:22.749Z,83.03
2023-05-22T04:19:22.798Z,83.39
2023-05-22T04:20:22.751Z,83.09
2023-05-22T04:21:23.250Z,83.59
2023-05-22T04:22:22.707Z,82.34
2023-05-22T04:23:22.703Z,81.23
2023-05-22T04:24:22.700Z,80.78
2023-05-22T04:25:22.684Z,80.58
2023-05-22T04:26:22.659Z,81.25
2023-05-22T04:27:22.757Z,80.91
2023-05-22T04:28:22.675Z,80.71
2023-05-22T04:29:22.639Z,80.66
2023-05-22T04:30:22.614Z,80.36
2023-05-22T04:31:22.686Z,79.82
2023-05-22T04:32:22.605Z,79.11
2023-05-22T04:33:22.560Z,78.77
2023-05-22T04:34:22.571Z,78.23
2023-05-22T04:35:22.539Z,77.62
2023-05-22T04:36:22.587Z,76.88
2023-05-22T04:37:22.506Z,76.75
2023-05-22T04:38:22.486Z,74.32
2023-05-22T04:39:22.497Z,74.83
2023-05-22T04:40:22.484Z,74.69
2023-05-22T04:41:22.797Z,75.10
2023-05-22T04:42:22.455Z,74.99
2023-05-22T04:43:22.419Z,74.96
2023-05-22T04:44:22.422Z,73.32
2023-05-22T04:45:22.393Z,73.61
2023-05-22T04:46:22.460Z,71.40
2023-05-22T04:47:22.401Z,72.37
2023-05-22T04:48:22.360Z,72.57
2023-05-22T04:49:22.364Z,70.56
2023-05-22T04:50:22.336Z,71.26
2023-05-22T04:51:22.323Z,71.63
2023-05-22T04:52:22.309Z,70.23
2023-05-22T04:53:22.306Z,69.72
2023-05-22T04:54:22.280Z,70.83
2023-05-22T04:55:22.269Z,71.03
2023-05-22T04:56:34.743Z,70.53
2023-05-22T04:57:23.256Z,70.43
2023-05-22T04:58:22.254Z,70.53
2023-05-22T04:59:22.220Z,69.59
2023-05-22T05:00:22.204Z,70.19
2023-05-22T05:01:22.204Z,69.18
2023-05-22T05:02:22.186Z,67.44
2023-05-22T05:03:22.230Z,68.45
2023-05-22T05:04:22.145Z,68.12
2023-05-22T05:05:22.123Z,68.12
2023-05-22T05:06:22.130Z,68.21
2023-05-22T05:07:22.150Z,67.71
2023-05-22T05:08:22.111Z,66.88
2023-05-22T05:09:22.105Z,68.08
2023-05-22T05:10:22.068Z,68.68
2023-05-22T05:11:22.047Z,68.05
2023-05-22T05:12:22.059Z,68.35
2023-05-22T05:13:22.059Z,68.62
2023-05-22T05:14:22.010Z,66.68
2023-05-22T05:15:22.031Z,65.28
2023-05-22T05:16:22.005Z,66.05
2023-05-22T05:17:21.985Z,65.55
2023-05-22T05:18:21.955Z,66.22
2023-05-22T05:19:21.981Z,66.12
2023-05-22T05:20:21.948Z,63.81
2023-05-22T05:21:21.952Z,65.01
2023-05-22T05:22:21.916Z,65.31
2023-05-22T05:23:21.981Z,65.62
2023-05-22T05:24:21.873Z,65.42
2023-05-22T05:25:21.871Z,64.01
2023-05-22T05:26:21.887Z,65.22
2023-05-22T05:27:21.831Z,64.42
2023-05-22T05:28:21.828Z,65.31
2023-05-22T05:29:21.806Z,66.02
2023-05-22T05:30:21.845Z,66.02
2023-05-22T05:31:21.805Z,65.62
2023-05-22T05:32:21.806Z,65.42
2023-05-22T05:33:21.753Z,66.02
2023-05-22T05:34:21.762Z,64.62
2023-05-22T05:35:21.757Z,65.92
2023-05-22T05:36:21.706Z,66.32
2023-05-22T05:37:21.724Z,66.12
2023-05-22T05:38:21.703Z,65.62
2023-05-22T05:39:21.675Z,64.39
2023-05-22T05:40:21.675Z,65.48
2023-05-22T05:41:21.649Z,65.89
2023-05-22T05:42:21.641Z,65.59
2023-05-22T05:43:21.624Z,65.78
2023-05-22T05:44:21.629Z,65.78
2023-05-22T05:45:21.619Z,65.09
2023-05-22T05:46:21.622Z,65.59
2023-05-22T05:47:21.588Z,65.99
2023-05-22T05:48:21.555Z,65.52
2023-05-22T05:49:21.551Z,65.59
2023-05-22T05:50:21.551Z,63.89
2023-05-22T05:51:21.530Z,63.89
2023-05-22T05:52:21.503Z,63.58
2023-05-22T05:53:21.498Z,63.18
2023-05-22T05:54:21.498Z,64.48
2023-05-22T05:55:21.474Z,63.18
2023-05-22T05:56:21.437Z,65.36
2023-05-22T05:57:21.433Z,64.15
2023-05-22T05:58:21.417Z,64.12
2023-05-22T05:59:21.432Z,63.82
2023-05-22T06:00:21.409Z,62.89
2023-05-22T06:01:21.388Z,63.26
2023-05-22T06:02:21.410Z,63.76
2023-05-22T06:03:21.429Z,63.33
2023-05-22T06:04:21.364Z,61.71
2023-05-22T06:05:21.359Z,60.97
2023-05-22T06:06:21.313Z,60.58
2023-05-22T06:07:21.315Z,61.25
2023-05-22T06:08:21.296Z,61.55
2023-05-22T06:09:21.281Z,61.22
2023-05-22T06:10:21.264Z,60.22
2023-05-22T06:11:21.254Z,59.82
2023-05-22T06:12:21.228Z,60.62
2023-05-22T06:13:21.236Z,59.72
2023-05-22T06:14:21.262Z,60.22
2023-05-22T06:15:21.239Z,59.59
2023-05-22T06:16:21.206Z,59.49
2023-05-22T06:17:21.174Z,58.20
2023-05-22T06:18:21.168Z,59.09
2023-05-22T06:19:21.228Z,59.06
2023-05-22T06:20:21.127Z,58.47
2023-05-22T06:21:21.113Z,59.06
2023-05-22T06:22:21.135Z,58.04
2023-05-22T06:23:21.115Z,57.42
2023-05-22T06:24:21.077Z,57.89
2023-05-22T06:25:21.055Z,56.49
2023-05-22T06:26:21.057Z,56.27
2023-05-22T06:27:21.040Z,55.65
2023-05-22T06:28:21.017Z,55.05
2023-05-22T06:29:21.007Z,54.65
2023-05-22T06:30:38.404Z,54.55
2023-05-22T06:31:22.004Z,54.75
2023-05-22T06:32:21.107Z,54.85
2023-05-22T06:33:21.050Z,55.72
2023-05-22T06:34:21.022Z,55.25
2023-05-22T06:35:20.951Z,54.06
2023-05-22T06:36:20.941Z,54.75
2023-05-22T06:37:20.922Z,55.15
2023-05-22T06:38:20.890Z,55.52
2023-05-22T06:39:20.919Z,55.12
2023-05-22T06:40:20.861Z,55.12
2023-05-22T06:41:20.870Z,54.90
2023-05-22T06:42:20.866Z,53.80
2023-05-22T06:43:20.824Z,54.08
2023-05-22T06:44:20.828Z,54.28
2023-05-22T06:45:20.824Z,53.19
2023-05-22T06:46:20.841Z,53.98
2023-05-22T06:47:20.805Z,54.05
2023-05-22T06:48:20.783Z,55.02
2023-05-22T06:49:20.764Z,53.63
2023-05-22T06:50:20.756Z,53.83
2023-05-22T06:51:20.738Z,53.33
2023-05-22T06:52:20.722Z,52.64
2023-05-22T06:53:20.709Z,52.44
2023-05-22T06:54:20.687Z,53.01
2023-05-22T06:55:20.685Z,52.31
2023-05-22T06:56:20.660Z,53.11
2023-05-22T06:57:20.640Z,52.69
2023-05-22T06:58:20.621Z,52.78
2023-05-22T06:59:20.618Z,53.28
2023-05-22T07:00:21.894Z,52.17
2023-05-22T07:01:20.637Z,51.97
2023-05-22T07:02:20.667Z,51.65
2023-05-22T07:03:20.572Z,50.76
2023-05-22T07:04:20.580Z,51.07
2023-05-22T07:05:20.577Z,51.07
2023-05-22T07:06:20.605Z,51.97
2023-05-22T07:07:20.515Z,51.28
2023-05-22T07:08:20.487Z,50.95
2023-05-22T07:09:20.521Z,51.15
2023-05-22T07:10:20.492Z,50.06
2023-05-22T07:11:20.453Z,50.88
2023-05-22T07:12:20.430Z,50.88
2023-05-22T07:13:20.461Z,50.88
2023-05-22T07:14:20.434Z,51.67
2023-05-22T07:15:20.425Z,51.97
2023-05-22T07:16:20.421Z,51.77
2023-05-22T07:17:20.458Z,51.57
2023-05-22T07:18:20.366Z,51.87
2023-05-22T07:19:20.449Z,52.04
2023-05-22T07:20:20.343Z,50.36
2023-05-22T07:21:20.358Z,51.45
2023-05-22T07:22:20.309Z,50.66
2023-05-22T07:23:20.313Z,51.35
2023-05-22T07:24:20.354Z,52.24
2023-05-22T07:25:20.274Z,51.65
2023-05-22T07:26:20.287Z,50.85
2023-05-22T07:27:20.248Z,50.46
2023-05-22T07:28:20.258Z,50.56
2023-05-22T07:29:21.915Z,50.66
2023-05-22T07:30:20.205Z,51.35
2023-05-22T07:31:20.244Z,50.98
2023-05-22T07:32:20.232Z,51.18
2023-05-22T07:33:20.200Z,51.67
2023-05-22T07:34:20.139Z,51.57
2023-05-22T07:35:20.151Z,51.87
2023-05-22T07:36:20.127Z,52.56
2023-05-22T07:37:20.123Z,51.65
2023-05-22T07:38:20.145Z,51.47
2023-05-22T07:39:20.082Z,51.87
2023-05-22T07:40:20.080Z,51.89
2023-05-22T07:41:20.068Z,52.66
2023-05-22T07:42:20.056Z,52.56
2023-05-22T07:43:20.037Z,51.28
2023-05-22T07:44:20.026Z,51.57
2023-05-22T07:45:20.013Z,52.17
2023-05-22T07:46:20.011Z,52.07
2023-05-22T07:47:20.047Z,52.46
2023-05-22T07:48:19.972Z,52.36
2023-05-22T07:49:20.019Z,52.46
2023-05-22T07:50:19.936Z,52.07
2023-05-22T07:51:19.923Z,52.56
2023-05-22T07:52:19.947Z,53.13
2023-05-22T07:53:19.906Z,51.94
2023-05-22T07:54:19.888Z,51.94
2023-05-22T07:55:19.878Z,51.87
2023-05-22T07:56:19.879Z,52.56
2023-05-22T07:57:19.874Z,52.26
2023-05-22T07:58:19.832Z,52.26
2023-05-22T07:59:19.826Z,52.56
2023-05-22T08:00:19.786Z,52.24
2023-05-22T08:01:19.828Z,51.75
2023-05-22T08:02:19.817Z,51.45
2023-05-22T08:03:21.047Z,52.14
2023-05-22T08:04:19.885Z,52.44
2023-05-22T08:05:19.888Z,51.62
2023-05-22T08:06:19.757Z,51.75
2023-05-22T08:07:19.708Z,52.44
2023-05-22T08:08:19.712Z,52.34
2023-05-22T08:09:19.689Z,50.95
2023-05-22T08:10:19.695Z,51.67
2023-05-22T08:11:19.687Z,51.87
2023-05-22T08:12:19.646Z,51.89
2023-05-22T08:13:19.626Z,52.19
2023-05-22T08:14:19.617Z,52.22
2023-05-22T08:15:19.622Z,52.51
2023-05-22T08:16:19.598Z,52.54
2023-05-22T08:17:19.660Z,53.33
2023-05-22T08:18:19.561Z,52.81
2023-05-22T08:19:19.721Z,52.64
2023-05-22T08:20:19.638Z,53.13
2023-05-22T08:21:19.558Z,53.73
2023-05-22T08:22:19.527Z,53.01
2023-05-22T08:23:19.509Z,52.81
2023-05-22T08:24:19.505Z,52.41
2023-05-22T08:25:19.489Z,53.50
2023-05-22T08:26:19.469Z,53.11
2023-05-22T08:27:19.454Z,53.28
2023-05-22T08:28:19.422Z,52.49
2023-05-22T08:29:19.438Z,52.29
2023-05-22T08:30:19.418Z,52.09
2023-05-22T08:31:19.449Z,52.19
2023-05-22T08:32:19.400Z,52.78
2023-05-22T08:33:19.390Z,52.71
2023-05-22T08:34:19.365Z,53.41
2023-05-22T08:35:19.368Z,52.69
2023-05-22T08:36:19.326Z,53.18
2023-05-22T08:37:19.319Z,53.08
2023-05-22T08:38:19.368Z,52.76
2023-05-22T08:39:19.421Z,51.97
2023-05-22T08:40:19.286Z,51.77
2023-05-22T08:41:19.277Z,51.94
2023-05-22T08:42:19.260Z,51.84
2023-05-22T08:43:19.262Z,50.73
2023-05-22T08:44:19.231Z,50.53
2023-05-22T08:45:19.218Z,51.42
2023-05-22T08:46:19.273Z,50.01
2023-05-22T08:47:19.301Z,49.52
2023-05-22T08:48:19.205Z,50.29
2023-05-22T08:49:19.166Z,49.20
2023-05-22T08:50:19.145Z,49.49
2023-05-22T08:51:19.153Z,49.27
2023-05-22T08:52:19.126Z,49.67
2023-05-22T08:53:19.114Z,49.37
2023-05-22T08:54:19.124Z,48.98
2023-05-22T08:55:19.091Z,49.67
2023-05-22T08:56:19.083Z,50.07
2023-05-22T08:57:19.066Z,50.36
2023-05-22T08:58:19.032Z,49.27
2023-05-22T08:59:19.065Z,48.68
2023-05-22T09:00:19.063Z,49.77
2023-05-22T09:01:19.064Z,49.57
2023-05-22T09:02:18.996Z,49.96
2023-05-22T09:03:19.097Z,49.77
2023-05-22T09:04:18.976Z,50.85
2023-05-22T09:05:18.946Z,50.36
2023-05-22T09:06:19.019Z,50.93
2023-05-22T09:07:18.928Z,49.33
2023-05-22T09:08:20.924Z,49.62
2023-05-22T09:09:18.946Z,49.33
2023-05-22T09:10:18.884Z,48.74
2023-05-22T09:11:18.882Z,49.82
2023-05-22T09:12:18.856Z,48.96
2023-05-22T09:13:18.853Z,49.22
2023-05-22T09:14:18.865Z,48.74
2023-05-22T09:15:18.834Z,49.52
2023-05-22T09:16:18.850Z,48.14
2023-05-22T09:17:18.874Z,47.87
2023-05-22T09:18:18.849Z,47.57
2023-05-22T09:19:18.840Z,48.36
2023-05-22T09:20:18.771Z,47.67
2023-05-22T09:21:29.462Z,48.75
2023-05-22T09:22:20.462Z,48.96
2023-05-22T09:23:18.730Z,48.27
2023-05-22T09:24:18.761Z,48.07
2023-05-22T09:25:18.710Z,48.14
2023-05-22T09:26:18.675Z,47.57
2023-05-22T09:27:18.670Z,48.46
2023-05-22T09:28:18.654Z,49.25
2023-05-22T09:29:18.687Z,48.14
2023-05-22T09:30:18.655Z,48.14
2023-05-22T09:31:18.665Z,48.74
2023-05-22T09:32:18.636Z,48.54
2023-05-22T09:33:18.596Z,47.75
2023-05-22T09:34:18.628Z,46.86
2023-05-22T09:35:18.582Z,47.55
2023-05-22T09:36:18.560Z,47.77
2023-05-22T09:37:18.563Z,48.16
2023-05-22T09:38:18.530Z,47.57
2023-05-22T09:39:18.529Z,46.98
2023-05-22T09:40:18.521Z,47.50
2023-05-22T09:41:18.507Z,47.08
2023-05-22T09:42:18.478Z,47.57
2023-05-22T09:43:18.473Z,47.45
2023-05-22T09:44:18.469Z,45.67
2023-05-22T09:45:18.423Z,45.78
2023-05-22T09:46:18.447Z,46.37
2023-05-22T09:47:18.470Z,45.97
2023-05-22T09:48:18.401Z,46.76
2023-05-22T09:49:18.384Z,47.16
2023-05-22T09:50:18.392Z,46.47
2023-05-22T09:51:18.360Z,46.25
2023-05-22T09:52:18.358Z,46.47
2023-05-22T09:53:18.341Z,46.07
2023-05-22T09:54:18.392Z,46.29
2023-05-22T09:55:18.308Z,46.69
2023-05-22T09:56:27.070Z,47.30
2023-05-22T09:57:19.275Z,47.60
2023-05-22T09:58:18.280Z,47.30
2023-05-22T09:59:18.258Z,46.19
2023-05-22T10:00:18.295Z,45.40
2023-05-22T10:01:18.252Z,45.50
2023-05-22T10:02:18.227Z,45.70
2023-05-22T10:03:18.211Z,47.08
2023-05-22T10:04:18.235Z,46.29
2023-05-22T10:05:18.181Z,46.48
2023-05-22T10:06:18.171Z,46.19
2023-05-22T10:07:18.164Z,47.67
2023-05-22T10:08:18.176Z,48.24
2023-05-22T10:09:19.564Z,47.45
2023-05-22T10:10:18.126Z,46.76
2023-05-22T10:11:18.094Z,47.45
2023-05-22T10:12:18.093Z,47.65
2023-05-22T10:13:18.069Z,47.35
2023-05-22T10:14:18.069Z,47.06
2023-05-22T10:15:18.042Z,46.07
2023-05-22T10:16:18.143Z,44.98
2023-05-22T10:17:18.038Z,46.26
2023-05-22T10:18:18.021Z,46.56
2023-05-22T10:19:18.077Z,45.67
2023-05-22T10:20:17.980Z,45.87
2023-05-22T10:21:17.965Z,47.35
2023-05-22T10:22:17.955Z,46.26
2023-05-22T10:23:17.942Z,46.56
2023-05-22T10:24:17.926Z,47.94
2023-05-22T10:25:17.909Z,47.16
2023-05-22T10:26:17.928Z,46.07
2023-05-22T10:27:17.907Z,45.79
2023-05-22T10:28:17.880Z,47.47
2023-05-22T10:29:17.881Z,47.47
2023-05-22T10:30:17.852Z,47.79
2023-05-22T10:31:17.844Z,47.69
2023-05-22T10:32:17.841Z,48.46
2023-05-22T10:33:17.870Z,48.36
2023-05-22T10:34:17.823Z,49.05
2023-05-22T10:35:17.792Z,47.77
2023-05-22T10:36:17.872Z,48.68
2023-05-22T10:37:22.237Z,48.66
2023-05-22T10:38:17.819Z,47.38
2023-05-22T10:39:17.728Z,47.77
2023-05-22T10:40:18.369Z,47.87
2023-05-22T10:41:17.715Z,47.47
2023-05-22T10:42:17.695Z,46.98
2023-05-22T10:43:17.703Z,47.20
2023-05-22T10:44:17.686Z,48.19
2023-05-22T10:45:17.680Z,47.00
2023-05-22T10:46:17.705Z,47.00
2023-05-22T10:47:17.627Z,48.49
2023-05-22T10:48:17.621Z,47.30
2023-05-22T10:49:17.597Z,47.89
2023-05-22T10:50:17.608Z,46.39
2023-05-22T10:51:17.575Z,46.59
2023-05-22T10:52:17.566Z,46.00
2023-05-22T10:53:17.542Z,45.40
2023-05-22T10:54:17.561Z,45.89
2023-05-22T10:55:17.545Z,47.25
2023-05-22T10:56:17.524Z,46.86
2023-05-22T10:57:17.493Z,46.47
2023-05-22T10:58:17.508Z,46.64
2023-05-22T10:59:17.468Z,45.46
2023-05-22T11:00:17.485Z,47.11
2023-05-22T11:01:17.525Z,46.81
2023-05-22T11:02:17.513Z,44.92
2023-05-22T11:03:18.521Z,45.02
2023-05-22T11:04:17.454Z,45.71
2023-05-22T11:05:17.414Z,46.59
2023-05-22T11:06:17.392Z,43.84
2023-05-22T11:07:17.374Z,44.53
2023-05-22T11:08:19.489Z,44.72
2023-05-22T11:09:17.357Z,44.92
2023-05-22T11:10:17.395Z,45.88
2023-05-22T11:11:17.321Z,45.88
2023-05-22T11:12:17.492Z,43.89
2023-05-22T11:13:17.299Z,42.52
2023-05-22T11:14:17.288Z,44.78
2023-05-22T11:15:17.280Z,43.10
2023-05-22T11:16:17.264Z,43.20
2023-05-22T11:17:17.261Z,42.20
2023-05-22T11:18:17.276Z,42.10
2023-05-22T11:20:17.314Z,40.72
2023-05-22T11:21:17.195Z,39.94
2023-05-22T11:22:17.169Z,39.66
2023-05-22T11:23:17.179Z,40.35
2023-05-22T11:24:17.203Z,42.32
2023-05-22T11:25:17.154Z,41.80
2023-05-22T11:26:17.136Z,42.79
2023-05-22T11:27:17.110Z,41.19
2023-05-22T11:28:17.129Z,41.98
2023-05-22T11:29:17.089Z,42.08
2023-05-22T11:30:17.130Z,41.59
2023-05-22T11:31:17.117Z,41.86
2023-05-22T11:32:17.054Z,40.69
2023-05-22T11:33:17.100Z,42.65
2023-05-22T11:34:17.043Z,41.77
2023-05-22T11:35:17.011Z,39.60
2023-05-22T11:36:17.000Z,39.90
2023-05-22T11:37:16.995Z,39.01
2023-05-22T11:38:16.998Z,40.61
2023-05-22T11:39:16.948Z,40.88
2023-05-22T11:40:17.033Z,40.00
2023-05-22T11:41:16.916Z,40.58
2023-05-22T11:42:16.954Z,40.00
2023-05-22T11:43:16.909Z,40.21
2023-05-22T11:44:16.908Z,42.47
2023-05-22T11:45:16.863Z,42.79
2023-05-22T11:46:16.902Z,42.89
2023-05-22T11:47:16.889Z,41.80
2023-05-22T11:48:16.889Z,42.69
2023-05-22T11:49:16.840Z,41.80
2023-05-22T11:50:23.270Z,41.71
2023-05-22T11:51:17.820Z,41.90
2023-05-22T11:52:16.835Z,42.59
2023-05-22T11:53:16.764Z,41.41
2023-05-22T11:54:16.778Z,41.71
2023-05-22T11:55:16.760Z,41.53
2023-05-22T11:56:16.753Z,42.61
2023-05-22T11:57:16.718Z,41.43
2023-05-22T11:58:16.713Z,42.02
2023-05-22T11:59:16.691Z,40.43
2023-05-22T12:00:16.707Z,42.20
2023-05-22T12:01:16.664Z,41.11
2023-05-22T12:02:16.660Z,41.31
2023-05-22T12:03:16.681Z,40.72
2023-05-22T12:04:16.744Z,42.49
2023-05-22T12:05:16.673Z,42.02
2023-05-22T12:06:17.368Z,42.20
2023-05-22T12:07:16.584Z,42.40
2023-05-22T12:08:16.566Z,41.80
2023-05-22T12:09:16.568Z,41.93
2023-05-22T12:10:16.594Z,42.41
2023-05-22T12:11:16.533Z,42.71
2023-05-22T12:12:16.520Z,41.63
2023-05-22T12:13:16.538Z,41.25
2023-05-22T12:14:16.498Z,44.21
2023-05-22T12:15:16.499Z,42.83
2023-05-22T12:16:16.505Z,43.05
2023-05-22T12:17:16.481Z,42.65
2023-05-22T12:18:16.486Z,41.47
2023-05-22T12:19:16.480Z,41.96
2023-05-22T12:20:16.443Z,42.07
2023-05-22T12:21:16.392Z,42.95
2023-05-22T12:22:16.408Z,42.97
2023-05-22T12:23:16.386Z,43.86
2023-05-22T12:24:16.382Z,44.06
2023-05-22T12:25:16.375Z,43.56
2023-05-22T12:26:16.335Z,44.62
2023-05-22T12:27:16.338Z,44.92
2023-05-22T12:28:16.318Z,43.54
2023-05-22T12:29:16.300Z,43.34
2023-05-22T12:30:16.439Z,42.28
2023-05-22T12:31:16.266Z,43.56
2023-05-22T12:32:16.348Z,44.74
2023-05-22T12:33:16.342Z,42.47
2023-05-22T12:34:16.258Z,42.18
2023-05-22T12:35:16.245Z,41.99
2023-05-22T12:36:16.215Z,41.59
2023-05-22T12:37:16.220Z,43.46
2023-05-22T12:38:16.190Z,42.68
2023-05-22T12:39:16.160Z,42.87
2023-05-22T12:40:16.181Z,41.69
2023-05-22T12:41:16.143Z,41.39
2023-05-22T12:42:16.132Z,43.24
2023-05-22T12:43:16.124Z,43.34
2023-05-22T12:44:16.095Z,42.85
2023-05-22T12:45:16.105Z,41.57
2023-05-22T12:46:16.105Z,42.36
2023-05-22T12:47:16.086Z,42.04
2023-05-22T12:48:16.073Z,43.91
2023-05-22T12:49:16.025Z,39.18
2023-05-22T12:50:16.062Z,40.27
2023-05-22T12:51:18.571Z,40.37
2023-05-22T12:52:16.019Z,42.83
2023-05-22T12:53:15.983Z,42.44